CYQT

Thunder Bay Airport

Thunder Bay, , Canada
TAF CYQT 201938Z 2020/2108 VRB03KT P6SM SKC RMK NXT FCST BY 210200Z
Issued Valid From Valid To
Jan-20 @ 19:38 UTC
(3 hours ago)
Jan-20 @ 20:00 UTC
(2 hours ago)
Jan-21 @ 08:00 UTC
(in 10 hours)
Jan-20 @ 20:00 to Jan-21 @ 08:00
TAF CYQT 201938Z 2020/2108 VRB03KT P6SM SKC RMK NXT FCST BY 210200Z
Wind Visibility Clouds
Variable at 3 knots Greater than 6 miles
  • Clear skies
TAF CYQT 201938Z 2020/2108 VRB03KT P6SM SKC RMK NXT FCST BY 210200Z
Issued Jan-20 @ 19:38 UTC
(3 hours ago)
Valid From Jan-20 @ 20:00 UTC
(2 hours ago)
Valid To Jan-21 @ 08:00 UTC
(in 10 hours)
Jan-20 @ 20:00 - Jan-21 @ 08:00
Wind Visibility
Variable at 3 knots Greater than 6 miles
Clouds
  • Clear skies